createdAt,value
2022-09-02T00:02:21.187Z,101678.41
2022-09-02T00:07:22.973Z,101677.13
2022-09-02T00:12:24.593Z,101675.44
2022-09-02T00:17:26.379Z,101673.28
2022-09-02T00:22:28.092Z,101663.88
2022-09-02T00:27:29.759Z,101662.13
2022-09-02T00:32:31.667Z,101670.31
2022-09-02T00:37:33.282Z,101665.16
2022-09-02T00:42:35.498Z,101664.34
2022-09-02T00:47:37.563Z,101661.34
2022-09-02T00:52:43.146Z,101649.53
2022-09-02T00:57:52.728Z,101654.22
2022-09-02T01:02:58.848Z,101642.03
2022-09-02T01:08:00.899Z,101637.72
2022-09-02T01:13:09.146Z,101637.09
2022-09-02T01:18:15.405Z,101635.59
2022-09-02T01:23:18.541Z,101630.69
2022-09-02T01:28:20.570Z,101631.94
2022-09-02T01:33:25.344Z,101631.13
2022-09-02T01:38:27.942Z,101634.53
2022-09-02T01:43:30.438Z,101615.88
2022-09-02T01:48:32.205Z,101617.56
2022-09-02T01:53:35.500Z,101616.94
2022-09-02T01:58:37.567Z,101611.34
2022-09-02T02:03:39.916Z,101613.28
2022-09-02T02:08:42.651Z,101609.84
2022-09-02T02:13:44.825Z,101602.75
2022-09-02T02:18:46.486Z,101605.34
2022-09-02T02:23:48.548Z,101594.41
2022-09-02T02:28:50.800Z,101601.03
2022-09-02T02:33:53.602Z,101592.03
2022-09-02T02:38:55.617Z,101587.97
2022-09-02T02:43:59.024Z,101591.41
2022-09-02T02:49:02.208Z,101586.22
2022-09-02T02:54:05.079Z,101580.03
2022-09-02T02:59:07.299Z,101581.50
2022-09-02T03:04:09.339Z,101577.03
2022-09-02T03:09:11.756Z,101571.22
2022-09-02T03:14:13.639Z,101568.88
2022-09-02T03:19:15.925Z,101571.88
2022-09-02T03:24:17.836Z,101567.56
2022-09-02T03:29:46.144Z,101572.47
2022-09-02T03:34:48.007Z,101563.22
2022-09-02T03:39:53.932Z,101557.44
2022-09-02T03:44:55.729Z,101559.59
2022-09-02T03:49:57.777Z,101560.44
2022-09-02T03:55:00.079Z,101550.59
2022-09-02T04:00:11.445Z,101544.13
2022-09-02T04:05:16.006Z,101547.16
2022-09-02T04:10:22.046Z,101540.69
2022-09-02T04:15:25.271Z,101531.69
2022-09-02T04:20:27.777Z,101527.00
2022-09-02T04:25:31.446Z,101526.94
2022-09-02T04:30:33.252Z,101529.31
2022-09-02T04:35:36.044Z,101524.16
2022-09-02T04:40:43.652Z,101518.34
2022-09-02T04:45:46.543Z,101515.78
2022-09-02T04:50:50.725Z,101524.75
2022-09-02T04:55:57.927Z,101517.94
2022-09-02T05:01:06.958Z,101512.38
2022-09-02T05:06:13.506Z,101516.63
2022-09-02T05:11:20.106Z,101522.59
2022-09-02T05:16:28.870Z,101527.97
2022-09-02T05:21:33.420Z,101518.56
2022-09-02T05:26:37.211Z,101516.63
2022-09-02T05:31:41.885Z,101514.06
2022-09-02T05:36:52.323Z,101511.28
2022-09-02T05:48:33.969Z,101513.28
2022-09-02T05:53:46.073Z,101513.69
2022-09-02T06:05:26.477Z,101512.78
2022-09-02T06:10:43.382Z,101503.84
2022-09-02T06:15:51.006Z,101504.03
2022-09-02T06:20:54.195Z,101499.75
2022-09-02T06:25:56.130Z,101507.44
2022-09-02T06:30:58.273Z,101499.09
2022-09-02T06:36:01.828Z,101503.84
2022-09-02T06:41:04.105Z,101499.53
2022-09-02T06:46:22.549Z,101498.69
2022-09-02T06:51:33.270Z,101496.34
2022-09-02T06:56:37.404Z,101492.72
2022-09-02T07:01:39.406Z,101497.72
2022-09-02T07:06:51.707Z,101497.72
2022-09-02T07:12:02.158Z,101497.31
2022-09-02T07:17:17.619Z,101498.38
2022-09-02T07:22:28.528Z,101490.03
2022-09-02T07:27:30.381Z,101479.53
2022-09-02T07:32:32.835Z,101482.53
2022-09-02T07:37:35.225Z,101479.28
2022-09-02T07:42:38.258Z,101481.66
2022-09-02T07:47:40.280Z,101479.03
2022-09-02T07:52:44.294Z,101473.16
2022-09-02T07:57:46.743Z,101470.34
2022-09-02T08:02:49.982Z,101462.59
2022-09-02T08:07:57.661Z,101463.44
2022-09-02T08:13:04.651Z,101465.97
2022-09-02T08:18:08.521Z,101460.56
2022-09-02T08:23:25.642Z,101458.81
2022-09-02T08:28:36.669Z,101454.88
2022-09-02T08:33:38.338Z,101456.09
2022-09-02T08:38:40.059Z,101454.91
2022-09-02T08:43:44.188Z,101451.31
2022-09-02T08:48:52.932Z,101456.41
2022-09-02T08:54:04.748Z,101449.59
2022-09-02T08:59:07.226Z,101440.91
2022-09-02T09:04:46.779Z,101445.38
2022-09-02T09:10:04.364Z,101440.50
2022-09-02T09:15:14.107Z,101449.47
2022-09-02T09:20:17.432Z,101435.28
2022-09-02T09:25:19.338Z,101432.56
2022-09-02T09:30:21.055Z,101430.78
2022-09-02T09:35:24.467Z,101425.19
2022-09-02T09:40:31.250Z,101428.13
2022-09-02T09:45:35.047Z,101425.63
2022-09-02T09:50:36.880Z,101423.22
2022-09-02T09:55:52.497Z,101419.44
2022-09-02T10:00:56.454Z,101422.78
2022-09-02T10:06:17.177Z,101416.56
2022-09-02T10:11:37.972Z,101413.59
2022-09-02T10:16:52.924Z,101417.06
2022-09-02T10:22:09.750Z,101417.91
2022-09-02T10:27:16.468Z,101406.91
2022-09-02T10:32:39.822Z,101397.63
2022-09-02T10:37:48.472Z,101397.63
2022-09-02T10:43:02.723Z,101389.81
2022-09-02T10:48:38.423Z,101387.69
2022-09-02T10:53:52.865Z,101385.03
2022-09-02T10:59:01.042Z,101388.38
2022-09-02T11:04:22.692Z,101376.78
2022-09-02T11:09:35.099Z,101374.16
2022-09-02T11:15:06.536Z,101373.94
2022-09-02T11:20:27.030Z,101368.63
2022-09-02T11:25:41.806Z,101360.00
2022-09-02T11:35:59.321Z,101350.88
2022-09-02T11:41:36.318Z,101342.91
2022-09-02T11:47:30.290Z,101342.44
2022-09-02T11:53:01.303Z,101333.59
2022-09-02T11:58:03.800Z,101323.47
2022-09-02T12:03:16.651Z,101319.16
2022-09-02T12:08:28.663Z,101329.28
2022-09-02T12:13:43.725Z,101321.41
2022-09-02T12:18:55.863Z,101308.34
2022-09-02T12:23:57.506Z,101301.63
2022-09-02T12:29:40.507Z,101290.75
2022-09-02T12:34:42.244Z,101284.38
2022-09-02T12:39:43.815Z,101289.88
2022-09-02T12:45:11.844Z,101284.81
2022-09-02T12:50:20.959Z,101281.13
2022-09-02T12:55:26.107Z,101278.66
2022-09-02T13:00:38.033Z,101273.31
2022-09-02T13:06:07.076Z,101275.34
2022-09-02T13:11:43.446Z,101266.84
2022-09-02T13:17:33.079Z,101250.50
2022-09-02T13:22:51.149Z,101250.81
2022-09-02T13:27:55.975Z,101252.25
2022-09-02T13:33:06.552Z,101252.25
2022-09-02T13:38:12.900Z,101239.81
2022-09-02T13:43:14.651Z,101244.34
2022-09-02T13:48:22.957Z,101227.38
2022-09-02T13:54:05.640Z,101228.53
2022-09-02T13:59:08.823Z,101227.41
2022-09-02T14:04:14.906Z,101217.50
2022-09-02T14:09:24.626Z,101212.13
2022-09-02T14:14:27.300Z,101214.38
2022-09-02T14:19:28.983Z,101208.47
2022-09-02T14:24:40.183Z,101203.94
2022-09-02T14:29:45.303Z,101197.41
2022-09-02T14:34:48.847Z,101191.19
2022-09-02T14:40:03.820Z,101190.38
2022-09-02T14:45:09.610Z,101177.34
2022-09-02T14:50:17.494Z,101177.66
2022-09-02T14:55:52.579Z,101171.13
2022-09-02T15:00:59.927Z,101173.13
2022-09-02T15:06:01.620Z,101166.09
2022-09-02T15:11:03.750Z,101167.47
2022-09-02T15:16:06.681Z,101155.06
2022-09-02T15:21:09.753Z,101163.53
2022-09-02T15:26:11.516Z,101161.31
2022-09-02T15:31:14.419Z,101161.81
2022-09-02T15:36:16.500Z,101148.53
2022-09-02T15:41:20.690Z,101146.59
2022-09-02T15:46:33.833Z,101140.94
2022-09-02T15:51:38.533Z,101131.03
2022-09-02T15:56:42.507Z,101133.25
2022-09-02T16:01:46.758Z,101123.03
2022-09-02T16:06:50.058Z,101113.44
2022-09-02T16:11:56.414Z,101121.56
2022-09-02T16:16:58.272Z,101110.53
2022-09-02T16:21:59.972Z,101112.47
2022-09-02T16:27:02.011Z,101105.38
2022-09-02T16:32:24.600Z,101103.41
2022-09-02T16:37:26.923Z,101108.41
2022-09-02T16:42:28.602Z,101097.13
2022-09-02T16:47:31.828Z,101094.78
2022-09-02T16:52:35.159Z,101088.59
2022-09-02T16:57:36.864Z,101083.47
2022-09-02T17:02:38.575Z,101073.28
2022-09-02T17:07:40.358Z,101078.63
2022-09-02T17:12:43.187Z,101074.34
2022-09-02T17:17:45.279Z,101074.06
2022-09-02T17:22:47.111Z,101071.50
2022-09-02T17:27:49.034Z,101075.41
2022-09-02T17:32:55.765Z,101072.56
2022-09-02T17:37:58.298Z,101076.16
2022-09-02T17:43:00.379Z,101077.50
2022-09-02T17:48:25.332Z,101073.53
2022-09-02T17:53:25.013Z,101071.00
2022-09-02T17:58:34.957Z,101069.50
2022-09-02T18:03:51.394Z,101069.41
2022-09-02T18:08:58.514Z,101067.09
2022-09-02T18:14:29.832Z,101073.84
2022-09-02T18:19:37.492Z,101070.97
2022-09-02T18:24:51.309Z,101069.81
2022-09-02T18:30:06.848Z,101075.38
2022-09-02T18:35:39.538Z,101068.78
2022-09-02T18:41:00.020Z,101074.63
2022-09-02T18:46:02.266Z,101074.31
2022-09-02T18:51:24.323Z,101082.97
2022-09-02T18:56:38.613Z,101076.34
2022-09-02T19:01:48.523Z,101075.97
2022-09-02T19:06:50.827Z,101080.41
2022-09-02T19:11:53.061Z,101083.13
2022-09-02T19:16:57.683Z,101081.03
2022-09-02T19:22:10.502Z,101083.50
2022-09-02T19:27:15.443Z,101083.47
2022-09-02T19:32:24.338Z,101088.97
2022-09-02T19:37:27.343Z,101087.72
2022-09-02T19:42:29.275Z,101081.53
2022-09-02T19:52:55.872Z,101082.22
2022-09-02T19:58:00.002Z,101097.06
2022-09-02T20:03:03.218Z,101085.16
2022-09-02T20:08:05.307Z,101092.97
2022-09-02T20:13:09.378Z,101102.97
2022-09-02T20:18:17.040Z,101097.16
2022-09-02T20:23:20.128Z,101098.78
2022-09-02T20:28:33.038Z,101091.97
2022-09-02T20:33:45.924Z,101099.22
2022-09-02T20:39:06.839Z,101095.81
2022-09-02T20:44:35.898Z,101099.16
2022-09-02T20:49:49.606Z,101091.03
2022-09-02T20:55:02.488Z,101087.88
2022-09-02T21:00:10.478Z,101084.00
2022-09-02T21:05:22.389Z,101077.69
2022-09-02T21:10:34.505Z,101081.38
2022-09-02T21:15:44.111Z,101079.34
2022-09-02T21:21:03.999Z,101074.59
2022-09-02T21:26:36.179Z,101075.59
2022-09-02T21:36:47.561Z,101076.53
2022-09-02T21:42:00.807Z,101068.13
2022-09-02T21:47:15.364Z,101062.16
2022-09-02T21:52:38.765Z,101066.19
2022-09-02T21:58:09.921Z,101060.09
2022-09-02T22:03:18.071Z,101059.88
2022-09-02T22:08:41.223Z,101061.88
2022-09-02T22:13:42.956Z,101058.81
2022-09-02T22:19:00.310Z,101053.72
2022-09-02T22:24:02.011Z,101057.78
2022-09-02T22:29:10.381Z,101051.56
2022-09-02T22:34:16.264Z,101046.22
2022-09-02T22:39:18.274Z,101051.34
2022-09-02T22:44:56.076Z,101052.44
2022-09-02T22:50:20.864Z,101044.44
2022-09-02T22:56:04.966Z,101044.94
2022-09-02T23:01:12.938Z,101042.75
2022-09-02T23:06:30.125Z,101048.84
2022-09-02T23:11:52.652Z,101034.53
2022-09-02T23:17:23.703Z,101038.16
2022-09-02T23:22:49.210Z,101035.59
2022-09-02T23:28:13.344Z,101031.72
2022-09-02T23:33:49.313Z,101030.50
2022-09-02T23:39:08.970Z,101033.41
2022-09-02T23:44:12.563Z,101027.81
2022-09-02T23:49:30.012Z,101023.34
2022-09-02T23:54:53.390Z,101016.53
